createdAt,value
2022-08-17T00:00:04.249Z,56
2022-08-17T00:01:00.717Z,56
2022-08-17T00:02:01.482Z,56
2022-08-17T00:03:00.677Z,56
2022-08-17T00:04:00.765Z,56
2022-08-17T00:05:03.555Z,56
2022-08-17T00:06:00.768Z,56
2022-08-17T00:07:00.696Z,56
2022-08-17T00:08:00.805Z,56
2022-08-17T00:09:00.725Z,56
2022-08-17T00:10:03.895Z,56
2022-08-17T00:11:00.722Z,56
2022-08-17T00:12:43.786Z,55
2022-08-17T00:13:00.740Z,55
2022-08-17T00:14:00.853Z,55
2022-08-17T00:15:03.812Z,55
2022-08-17T00:16:00.844Z,55
2022-08-17T00:17:00.786Z,55
2022-08-17T00:18:00.900Z,55
2022-08-17T00:19:07.973Z,55
2022-08-17T00:20:05.344Z,55
2022-08-17T00:21:00.802Z,55
2022-08-17T00:22:31.047Z,55
2022-08-17T00:23:00.811Z,55
2022-08-17T00:24:00.918Z,55
2022-08-17T00:25:03.930Z,55
2022-08-17T00:26:00.943Z,55
2022-08-17T00:27:00.840Z,55
2022-08-17T00:28:00.917Z,55
2022-08-17T00:29:00.847Z,54
2022-08-17T00:30:05.355Z,54
2022-08-17T00:31:00.862Z,54
2022-08-17T00:32:00.975Z,54
2022-08-17T00:33:11.593Z,54
2022-08-17T00:34:00.951Z,54
2022-08-17T00:35:03.917Z,54
2022-08-17T00:36:01.015Z,54
2022-08-17T00:37:00.917Z,54
2022-08-17T00:38:00.993Z,55
2022-08-17T00:39:00.923Z,55
2022-08-17T00:40:04.419Z,55
2022-08-17T00:41:00.934Z,55
2022-08-17T00:42:01.048Z,55
2022-08-17T00:43:00.953Z,55
2022-08-17T00:44:01.044Z,54
2022-08-17T00:45:04.459Z,54
2022-08-17T00:46:01.032Z,54
2022-08-17T00:47:00.972Z,54
2022-08-17T00:48:01.058Z,54
2022-08-17T00:49:00.986Z,54
2022-08-17T00:50:04.281Z,54
2022-08-17T00:51:01.030Z,54
2022-08-17T00:52:01.115Z,55
2022-08-17T00:53:01.025Z,55
2022-08-17T00:54:01.142Z,55
2022-08-17T00:55:04.115Z,55
2022-08-17T00:56:01.156Z,55
2022-08-17T00:57:01.062Z,55
2022-08-17T00:58:01.131Z,55
2022-08-17T00:59:01.063Z,55
2022-08-17T01:00:04.506Z,55
2022-08-17T01:01:01.182Z,55
2022-08-17T01:02:01.335Z,55
2022-08-17T01:03:01.121Z,55
2022-08-17T01:04:01.163Z,56
2022-08-17T01:05:04.008Z,56
2022-08-17T01:06:01.219Z,56
2022-08-17T01:07:01.135Z,56
2022-08-17T01:08:01.228Z,56
2022-08-17T01:09:01.160Z,56
2022-08-17T01:10:04.613Z,56
2022-08-17T01:11:01.947Z,56
2022-08-17T01:12:00.252Z,56
2022-08-17T01:13:00.174Z,56
2022-08-17T01:14:00.236Z,56
2022-08-17T01:15:03.094Z,55
2022-08-17T01:16:00.230Z,55
2022-08-17T01:17:00.196Z,55
2022-08-17T01:18:00.256Z,55
2022-08-17T01:19:00.259Z,55
2022-08-17T01:20:03.395Z,55
2022-08-17T01:21:00.211Z,55
2022-08-17T01:22:00.291Z,55
2022-08-17T01:23:00.233Z,55
2022-08-17T01:24:00.287Z,55
2022-08-17T01:25:02.998Z,55
2022-08-17T01:26:00.406Z,55
2022-08-17T01:27:00.257Z,55
2022-08-17T01:28:00.336Z,55
2022-08-17T01:29:00.262Z,55
2022-08-17T01:30:03.851Z,56
2022-08-17T01:31:00.278Z,56
2022-08-17T01:32:00.382Z,56
2022-08-17T01:33:00.300Z,56
2022-08-17T01:34:00.610Z,56
2022-08-17T01:35:03.312Z,56
2022-08-17T01:36:00.434Z,56
2022-08-17T01:37:00.305Z,56
2022-08-17T01:38:00.461Z,56
2022-08-17T01:39:00.337Z,56
2022-08-17T01:40:04.179Z,56
2022-08-17T01:41:00.345Z,56
2022-08-17T01:42:00.472Z,56
2022-08-17T01:43:00.368Z,56
2022-08-17T01:44:00.456Z,56
2022-08-17T01:45:14.174Z,56
2022-08-17T01:46:02.717Z,56
2022-08-17T01:47:00.378Z,56
2022-08-17T01:48:00.470Z,56
2022-08-17T01:49:00.394Z,56
2022-08-17T01:50:03.600Z,56
2022-08-17T01:51:00.443Z,56
2022-08-17T01:52:00.521Z,56
2022-08-17T01:53:00.447Z,56
2022-08-17T01:54:00.643Z,56
2022-08-17T01:55:04.767Z,56
2022-08-17T01:56:00.526Z,56
2022-08-17T01:57:00.462Z,56
2022-08-17T01:58:00.534Z,56
2022-08-17T01:59:00.462Z,56
2022-08-17T02:00:03.849Z,56
2022-08-17T02:01:01.645Z,56
2022-08-17T02:02:00.571Z,56
2022-08-17T02:03:00.516Z,56
2022-08-17T02:04:01.765Z,56
2022-08-17T02:05:03.441Z,56
2022-08-17T02:06:00.598Z,56
2022-08-17T02:07:00.565Z,56
2022-08-17T02:08:00.888Z,56
2022-08-17T02:09:02.231Z,56
2022-08-17T02:10:05.044Z,56
2022-08-17T02:11:00.568Z,56
2022-08-17T02:12:38.103Z,56
2022-08-17T02:13:00.619Z,56
2022-08-17T02:14:02.922Z,56
2022-08-17T02:15:04.813Z,56
2022-08-17T02:16:00.661Z,56
2022-08-17T02:17:00.600Z,56
2022-08-17T02:18:00.690Z,57
2022-08-17T02:19:00.654Z,57
2022-08-17T02:20:04.230Z,57
2022-08-17T02:21:00.643Z,57
2022-08-17T02:22:00.701Z,57
2022-08-17T02:23:00.660Z,57
2022-08-17T02:24:00.741Z,57
2022-08-17T02:25:03.639Z,57
2022-08-17T02:26:00.769Z,57
2022-08-17T02:27:00.683Z,57
2022-08-17T02:28:00.746Z,57
2022-08-17T02:29:00.694Z,57
2022-08-17T02:30:04.061Z,57
2022-08-17T02:31:03.203Z,57
2022-08-17T02:32:00.751Z,57
2022-08-17T02:33:00.712Z,57
2022-08-17T02:34:04.729Z,57
2022-08-17T02:35:04.287Z,57
2022-08-17T02:36:00.811Z,58
2022-08-17T02:37:00.749Z,58
2022-08-17T02:38:00.798Z,58
2022-08-17T02:39:00.756Z,58
2022-08-17T02:40:03.783Z,58
2022-08-17T02:41:00.753Z,58
2022-08-17T02:42:00.864Z,58
2022-08-17T02:43:00.788Z,58
2022-08-17T02:44:00.837Z,58
2022-08-17T02:45:04.290Z,58
2022-08-17T02:46:03.187Z,58
2022-08-17T02:47:00.785Z,58
2022-08-17T02:48:00.921Z,58
2022-08-17T02:49:00.824Z,59
2022-08-17T02:50:04.049Z,59
2022-08-17T02:51:00.836Z,60
2022-08-17T02:52:00.937Z,60
2022-08-17T02:53:02.453Z,60
2022-08-17T02:54:35.753Z,60
2022-08-17T02:55:03.765Z,60
2022-08-17T02:56:00.933Z,60
2022-08-17T02:57:00.865Z,60
2022-08-17T02:58:00.986Z,60
2022-08-17T02:59:00.864Z,61
2022-08-17T03:00:04.257Z,61
2022-08-17T03:01:00.906Z,61
2022-08-17T03:02:01.057Z,61
2022-08-17T03:03:00.930Z,61
2022-08-17T03:04:00.981Z,61
2022-08-17T03:05:03.955Z,61
2022-08-17T03:06:01.052Z,61
2022-08-17T03:07:00.948Z,61
2022-08-17T03:08:01.056Z,61
2022-08-17T03:09:00.966Z,61
2022-08-17T03:10:04.412Z,61
2022-08-17T03:11:00.986Z,61
2022-08-17T03:12:01.075Z,61
2022-08-17T03:13:00.997Z,61
2022-08-17T03:14:01.086Z,61
2022-08-17T03:15:03.996Z,61
2022-08-17T03:16:01.108Z,62
2022-08-17T03:17:01.027Z,62
2022-08-17T03:18:01.108Z,62
2022-08-17T03:19:01.036Z,62
2022-08-17T03:20:04.237Z,62
2022-08-17T03:21:01.049Z,62
2022-08-17T03:22:01.128Z,62
2022-08-17T03:23:02.005Z,62
2022-08-17T03:24:01.171Z,62
2022-08-17T03:25:03.994Z,62
2022-08-17T03:26:01.144Z,62
2022-08-17T03:27:01.099Z,62
2022-08-17T03:28:01.149Z,63
2022-08-17T03:29:01.089Z,63
2022-08-17T03:30:06.173Z,63
2022-08-17T03:31:01.120Z,63
2022-08-17T03:32:01.200Z,63
2022-08-17T03:33:01.144Z,63
2022-08-17T03:34:01.235Z,62
2022-08-17T03:35:04.217Z,62
2022-08-17T03:36:01.277Z,63
2022-08-17T03:37:01.152Z,63
2022-08-17T03:38:01.445Z,63
2022-08-17T03:39:00.167Z,63
2022-08-17T03:40:03.515Z,63
2022-08-17T03:41:00.184Z,63
2022-08-17T03:42:00.374Z,63
2022-08-17T03:43:00.194Z,63
2022-08-17T03:44:00.276Z,63
2022-08-17T03:45:03.113Z,63
2022-08-17T03:46:00.314Z,63
2022-08-17T03:47:00.214Z,63
2022-08-17T03:48:00.356Z,63
2022-08-17T03:49:00.232Z,63
2022-08-17T03:50:03.692Z,63
2022-08-17T03:51:00.255Z,63
2022-08-17T03:52:00.331Z,63
2022-08-17T03:53:00.354Z,63
2022-08-17T03:54:00.375Z,63
2022-08-17T03:55:03.341Z,63
2022-08-17T03:56:00.375Z,63
2022-08-17T03:57:00.317Z,63
2022-08-17T03:58:00.385Z,63
2022-08-17T03:59:00.310Z,62
2022-08-17T04:00:03.759Z,62
2022-08-17T04:01:00.399Z,62
2022-08-17T04:02:00.430Z,62
2022-08-17T04:03:00.362Z,62
2022-08-17T04:04:00.417Z,62
2022-08-17T04:05:03.348Z,62
2022-08-17T04:06:00.470Z,62
2022-08-17T04:07:00.426Z,61
2022-08-17T04:08:00.446Z,61
2022-08-17T04:09:00.408Z,61
2022-08-17T04:10:04.149Z,61
2022-08-17T04:11:00.420Z,61
2022-08-17T04:12:16.288Z,61
2022-08-17T04:13:00.428Z,61
2022-08-17T04:14:00.566Z,60
2022-08-17T04:15:03.470Z,60
2022-08-17T04:16:00.539Z,60
2022-08-17T04:17:00.458Z,60
2022-08-17T04:18:00.575Z,60
2022-08-17T04:19:00.459Z,60
2022-08-17T04:20:03.867Z,60
2022-08-17T04:21:00.488Z,60
2022-08-17T04:22:00.593Z,60
2022-08-17T04:23:00.478Z,60
2022-08-17T04:24:00.591Z,60
2022-08-17T04:25:04.155Z,60
2022-08-17T04:26:00.692Z,60
2022-08-17T04:27:00.533Z,61
2022-08-17T04:28:00.625Z,61
2022-08-17T04:29:00.686Z,61
2022-08-17T04:30:04.379Z,61
2022-08-17T04:31:00.657Z,61
2022-08-17T04:32:01.034Z,61
2022-08-17T04:33:06.470Z,61
2022-08-17T04:34:00.838Z,61
2022-08-17T04:35:04.246Z,61
2022-08-17T04:36:00.732Z,61
2022-08-17T04:37:00.739Z,61
2022-08-17T04:38:00.650Z,61
2022-08-17T04:39:00.610Z,61
2022-08-17T04:40:04.508Z,61
2022-08-17T04:41:00.633Z,61
2022-08-17T04:42:00.742Z,61
2022-08-17T04:43:01.037Z,61
2022-08-17T04:44:00.698Z,61
2022-08-17T04:45:03.910Z,61
2022-08-17T04:46:00.727Z,61
2022-08-17T04:47:00.676Z,61
2022-08-17T04:48:00.797Z,61
2022-08-17T04:49:00.682Z,60
2022-08-17T04:50:04.227Z,60
2022-08-17T04:51:00.720Z,60
2022-08-17T04:52:04.341Z,60
2022-08-17T04:53:01.205Z,60
2022-08-17T04:54:00.827Z,60
2022-08-17T04:55:03.531Z,60
2022-08-17T04:56:00.841Z,60
2022-08-17T04:57:00.737Z,60
2022-08-17T04:58:00.794Z,60
2022-08-17T04:59:00.740Z,60
2022-08-17T05:00:05.730Z,60
2022-08-17T05:01:00.817Z,60
2022-08-17T05:02:00.864Z,61
2022-08-17T05:03:00.816Z,61
2022-08-17T05:04:00.945Z,61
2022-08-17T05:05:03.907Z,61
2022-08-17T05:06:01.105Z,61
2022-08-17T05:07:00.831Z,61
2022-08-17T05:08:00.922Z,61
2022-08-17T05:09:00.860Z,61
2022-08-17T05:10:04.348Z,61
2022-08-17T05:11:00.872Z,61
2022-08-17T05:12:01.026Z,61
2022-08-17T05:13:00.886Z,61
2022-08-17T05:14:00.960Z,61
2022-08-17T05:15:03.832Z,60
2022-08-17T05:16:01.028Z,60
2022-08-17T05:17:01.231Z,60
2022-08-17T05:18:01.065Z,60
2022-08-17T05:19:00.896Z,60
2022-08-17T05:20:05.299Z,60
2022-08-17T05:21:00.961Z,60
2022-08-17T05:22:01.078Z,60
2022-08-17T05:23:00.950Z,60
2022-08-17T05:24:01.123Z,60
2022-08-17T05:25:04.250Z,59
2022-08-17T05:26:01.071Z,59
2022-08-17T05:27:06.347Z,59
2022-08-17T05:28:02.198Z,60
2022-08-17T05:29:02.866Z,60
2022-08-17T05:30:04.970Z,59
2022-08-17T05:31:01.028Z,59
2022-08-17T05:32:01.109Z,59
2022-08-17T05:33:01.051Z,59
2022-08-17T05:34:01.157Z,59
2022-08-17T05:35:04.192Z,59
2022-08-17T05:36:01.168Z,59
2022-08-17T05:37:01.072Z,59
2022-08-17T05:38:01.310Z,59
2022-08-17T05:39:01.086Z,59
2022-08-17T05:40:04.586Z,59
2022-08-17T05:41:01.099Z,59
2022-08-17T05:42:01.211Z,59
2022-08-17T05:43:01.108Z,59
2022-08-17T05:44:05.479Z,59
2022-08-17T05:45:04.751Z,59
2022-08-17T05:46:01.484Z,59
2022-08-17T05:47:01.123Z,59
2022-08-17T05:48:01.258Z,59
2022-08-17T05:49:01.150Z,59
2022-08-17T05:50:09.603Z,59
2022-08-17T05:51:01.168Z,59
2022-08-17T05:52:01.239Z,59
2022-08-17T05:53:00.167Z,59
2022-08-17T05:54:00.310Z,59
2022-08-17T05:55:03.461Z,59
2022-08-17T05:56:00.305Z,58
2022-08-17T05:57:00.211Z,58
2022-08-17T05:58:00.289Z,58
2022-08-17T05:59:00.210Z,58
2022-08-17T06:00:03.505Z,58
2022-08-17T06:01:00.256Z,58
2022-08-17T06:02:00.339Z,58
2022-08-17T06:03:00.264Z,58
2022-08-17T06:04:01.020Z,58
2022-08-17T06:05:03.368Z,58
2022-08-17T06:06:00.353Z,58
2022-08-17T06:07:00.266Z,58
2022-08-17T06:08:00.363Z,58
2022-08-17T06:09:00.289Z,58
2022-08-17T06:10:03.977Z,58
2022-08-17T06:11:00.320Z,58
2022-08-17T06:12:00.381Z,58
2022-08-17T06:13:00.310Z,58
2022-08-17T06:14:00.394Z,58
2022-08-17T06:15:03.897Z,58
2022-08-17T06:16:00.432Z,58
2022-08-17T06:17:00.389Z,58
2022-08-17T06:18:02.539Z,57
2022-08-17T06:19:00.369Z,57
2022-08-17T06:20:03.578Z,57
2022-08-17T06:21:00.381Z,57
2022-08-17T06:22:00.988Z,57
2022-08-17T06:23:00.421Z,57
2022-08-17T06:24:00.541Z,57
2022-08-17T06:25:03.418Z,57
2022-08-17T06:26:00.499Z,57
2022-08-17T06:27:00.435Z,57
2022-08-17T06:28:00.518Z,57
2022-08-17T06:29:00.453Z,57
2022-08-17T06:30:05.325Z,57
2022-08-17T06:31:01.229Z,57
2022-08-17T06:32:00.519Z,57
2022-08-17T06:33:00.460Z,57
2022-08-17T06:34:00.541Z,57
2022-08-17T06:35:03.517Z,57
2022-08-17T06:36:01.498Z,56
2022-08-17T06:37:00.475Z,56
2022-08-17T06:38:00.557Z,56
2022-08-17T06:39:00.510Z,56
2022-08-17T06:40:03.935Z,56
2022-08-17T06:41:00.533Z,56
2022-08-17T06:42:00.622Z,56
2022-08-17T06:43:06.232Z,56
2022-08-17T06:44:00.991Z,56
2022-08-17T06:45:03.626Z,56
2022-08-17T06:46:00.638Z,56
2022-08-17T06:47:00.555Z,56
2022-08-17T06:48:00.998Z,56
2022-08-17T06:49:00.538Z,56
2022-08-17T06:50:03.988Z,56
2022-08-17T06:51:00.569Z,56
2022-08-17T06:52:01.091Z,56
2022-08-17T06:53:00.886Z,56
2022-08-17T06:54:00.728Z,56
2022-08-17T06:55:03.478Z,56
2022-08-17T06:56:00.992Z,56
2022-08-17T06:57:00.615Z,56
2022-08-17T06:58:00.717Z,56
2022-08-17T06:59:00.642Z,56
2022-08-17T07:00:04.247Z,56
2022-08-17T07:01:00.683Z,56
2022-08-17T07:02:00.733Z,56
2022-08-17T07:03:00.665Z,56
2022-08-17T07:04:05.167Z,55
2022-08-17T07:05:03.701Z,55
2022-08-17T07:06:00.761Z,55
2022-08-17T07:07:00.687Z,55
2022-08-17T07:08:01.026Z,55
2022-08-17T07:09:00.716Z,55
2022-08-17T07:10:04.698Z,55
2022-08-17T07:11:00.732Z,55
2022-08-17T07:12:01.049Z,55
2022-08-17T07:13:00.727Z,55
2022-08-17T07:14:00.946Z,55
2022-08-17T07:15:03.705Z,55
2022-08-17T07:16:01.632Z,55
2022-08-17T07:17:00.740Z,54
2022-08-17T07:18:01.233Z,54
2022-08-17T07:19:00.755Z,54
2022-08-17T07:20:05.294Z,54
2022-08-17T07:21:00.788Z,54
2022-08-17T07:22:00.869Z,53
2022-08-17T07:23:00.839Z,53
2022-08-17T07:24:00.946Z,53
2022-08-17T07:25:03.612Z,53
2022-08-17T07:26:00.897Z,53
2022-08-17T07:27:00.829Z,53
2022-08-17T07:28:00.945Z,53
2022-08-17T07:29:00.835Z,52
2022-08-17T07:30:09.542Z,52
2022-08-17T07:31:00.834Z,52
2022-08-17T07:32:00.994Z,52
2022-08-17T07:33:00.883Z,52
2022-08-17T07:34:00.977Z,51
2022-08-17T07:35:03.877Z,51
2022-08-17T07:36:01.002Z,51
2022-08-17T07:37:00.882Z,52
2022-08-17T07:38:00.953Z,52
2022-08-17T07:39:00.903Z,53
2022-08-17T07:40:16.047Z,53
2022-08-17T07:41:00.890Z,53
2022-08-17T07:42:00.981Z,53
2022-08-17T07:43:00.919Z,53
2022-08-17T07:44:00.984Z,52
2022-08-17T07:45:03.889Z,52
2022-08-17T07:46:01.130Z,52
2022-08-17T07:47:00.944Z,53
2022-08-17T07:48:01.517Z,53
2022-08-17T07:49:00.958Z,53
2022-08-17T07:50:04.506Z,53
2022-08-17T07:51:00.981Z,53
2022-08-17T07:52:13.565Z,51
2022-08-17T07:53:00.990Z,51
2022-08-17T07:54:13.671Z,51
2022-08-17T07:55:03.773Z,51
2022-08-17T07:56:02.044Z,51
2022-08-17T07:57:01.030Z,51
2022-08-17T07:58:01.121Z,51
2022-08-17T07:59:01.042Z,51
2022-08-17T08:00:05.016Z,51
2022-08-17T08:01:01.036Z,51
2022-08-17T08:02:01.264Z,50
2022-08-17T08:03:01.057Z,50
2022-08-17T08:04:03.541Z,49
2022-08-17T08:05:06.657Z,49
2022-08-17T08:06:01.224Z,49
2022-08-17T08:07:01.100Z,49
2022-08-17T08:08:01.216Z,49
2022-08-17T08:09:01.107Z,49
2022-08-17T08:10:05.328Z,48
2022-08-17T08:11:01.121Z,48
2022-08-17T08:12:01.228Z,49
2022-08-17T08:13:01.159Z,49
2022-08-17T08:14:01.197Z,49
2022-08-17T08:15:04.561Z,49
2022-08-17T08:16:01.470Z,49
2022-08-17T08:17:01.167Z,49
2022-08-17T08:18:00.251Z,49
2022-08-17T08:19:00.171Z,49
2022-08-17T08:20:51.015Z,49
2022-08-17T08:21:00.272Z,49
2022-08-17T08:22:00.277Z,50
2022-08-17T08:23:00.199Z,50
2022-08-17T08:24:00.354Z,50
2022-08-17T08:25:03.187Z,50
2022-08-17T08:26:00.293Z,50
2022-08-17T08:27:00.246Z,50
2022-08-17T08:28:00.334Z,50
2022-08-17T08:29:00.241Z,50
2022-08-17T08:30:03.516Z,50
2022-08-17T08:31:00.263Z,50
2022-08-17T08:32:01.035Z,51
2022-08-17T08:33:00.288Z,51
2022-08-17T08:34:00.386Z,51
2022-08-17T08:35:03.660Z,51
2022-08-17T08:36:01.075Z,51
2022-08-17T08:37:16.366Z,52
2022-08-17T08:38:00.379Z,52
2022-08-17T08:39:00.324Z,52
2022-08-17T08:40:04.980Z,52
2022-08-17T08:41:00.315Z,52
2022-08-17T08:42:00.447Z,52
2022-08-17T08:43:00.331Z,51
2022-08-17T08:44:01.014Z,51
2022-08-17T08:45:04.378Z,51
2022-08-17T08:46:00.483Z,51
2022-08-17T08:47:00.353Z,51
2022-08-17T08:48:05.680Z,51
2022-08-17T08:49:04.927Z,51
2022-08-17T08:50:05.112Z,52
2022-08-17T08:51:00.393Z,52
2022-08-17T08:52:01.022Z,52
2022-08-17T08:53:00.403Z,52
2022-08-17T08:54:00.483Z,52
2022-08-17T08:55:03.133Z,52
2022-08-17T08:56:01.026Z,52
2022-08-17T08:57:23.920Z,52
2022-08-17T08:58:00.555Z,52
2022-08-17T08:59:00.437Z,52
2022-08-17T09:00:05.265Z,52
2022-08-17T09:01:00.600Z,52
2022-08-17T09:02:00.715Z,52
2022-08-17T09:03:00.504Z,53
2022-08-17T09:04:19.635Z,53
2022-08-17T09:05:14.367Z,53
2022-08-17T09:06:01.149Z,53
2022-08-17T09:07:00.514Z,53
2022-08-17T09:08:01.415Z,53
2022-08-17T09:09:00.552Z,53
2022-08-17T09:10:05.905Z,53
2022-08-17T09:11:00.564Z,53
2022-08-17T09:12:03.908Z,54
2022-08-17T09:13:09.307Z,54
2022-08-17T09:14:00.993Z,54
2022-08-17T09:15:07.227Z,54
2022-08-17T09:16:00.856Z,54
2022-08-17T09:17:00.604Z,54
2022-08-17T09:18:30.425Z,54
2022-08-17T09:19:04.443Z,54
2022-08-17T09:20:04.051Z,55
2022-08-17T09:21:00.633Z,55
2022-08-17T09:22:00.765Z,56
2022-08-17T09:23:00.643Z,56
2022-08-17T09:24:00.751Z,56
2022-08-17T09:25:03.592Z,56
2022-08-17T09:26:00.750Z,56
2022-08-17T09:27:00.682Z,56
2022-08-17T09:28:00.955Z,56
2022-08-17T09:29:00.681Z,56
2022-08-17T09:30:04.136Z,56
2022-08-17T09:31:00.706Z,56
2022-08-17T09:32:01.003Z,56
2022-08-17T09:33:00.723Z,56
2022-08-17T09:34:00.852Z,56
2022-08-17T09:35:03.706Z,56
2022-08-17T09:36:01.016Z,56
2022-08-17T09:37:00.731Z,56
2022-08-17T09:38:00.826Z,56
2022-08-17T09:39:00.758Z,56
2022-08-17T09:40:04.652Z,56
2022-08-17T09:41:00.766Z,56
2022-08-17T09:42:00.856Z,56
2022-08-17T09:43:00.779Z,57
2022-08-17T09:44:01.026Z,57
2022-08-17T09:45:03.635Z,57
2022-08-17T09:46:00.898Z,57
2022-08-17T09:47:00.810Z,57
2022-08-17T09:48:01.027Z,56
2022-08-17T09:49:00.815Z,56
2022-08-17T09:50:04.241Z,56
2022-08-17T09:51:05.862Z,56
2022-08-17T09:52:01.034Z,56
2022-08-17T09:53:00.832Z,56
2022-08-17T09:54:21.093Z,56
2022-08-17T09:55:04.613Z,56
2022-08-17T09:56:01.047Z,56
2022-08-17T09:58:00.984Z,56
2022-08-17T09:59:00.895Z,56
2022-08-17T10:00:04.713Z,56
2022-08-17T10:01:01.028Z,56
2022-08-17T10:02:01.001Z,56
2022-08-17T10:03:00.938Z,56
2022-08-17T10:04:01.061Z,55
2022-08-17T10:05:04.330Z,55
2022-08-17T10:06:01.002Z,55
2022-08-17T10:07:00.938Z,55
2022-08-17T10:08:01.028Z,54
2022-08-17T10:09:00.981Z,54
2022-08-17T10:10:05.523Z,54
2022-08-17T10:11:00.974Z,54
2022-08-17T10:12:01.112Z,54
2022-08-17T10:13:00.995Z,54
2022-08-17T10:14:01.084Z,53
2022-08-17T10:15:08.070Z,53
2022-08-17T10:16:01.211Z,52
2022-08-17T10:17:01.018Z,52
2022-08-17T10:18:01.128Z,51
2022-08-17T10:19:01.012Z,51
2022-08-17T10:20:04.688Z,51
2022-08-17T10:21:01.036Z,50
2022-08-17T10:22:32.759Z,50
2022-08-17T10:23:01.046Z,50
2022-08-17T10:24:01.125Z,48
2022-08-17T10:25:21.360Z,48
2022-08-17T10:26:01.166Z,48
2022-08-17T10:27:01.094Z,47
2022-08-17T10:28:01.161Z,47
2022-08-17T10:29:01.110Z,47
2022-08-17T10:30:05.845Z,47
2022-08-17T10:31:31.040Z,47
2022-08-17T10:32:01.173Z,47
2022-08-17T10:33:01.131Z,47
2022-08-17T10:34:01.263Z,48
2022-08-17T10:35:04.369Z,48
2022-08-17T10:36:01.223Z,48
2022-08-17T10:37:01.148Z,47
2022-08-17T10:38:01.226Z,47
2022-08-17T10:39:01.177Z,47
2022-08-17T10:40:03.712Z,47
2022-08-17T10:41:00.184Z,47
2022-08-17T10:42:00.347Z,47
2022-08-17T10:43:00.197Z,47
2022-08-17T10:44:39.648Z,47
2022-08-17T10:45:03.125Z,47
2022-08-17T10:46:10.432Z,47
2022-08-17T10:47:00.220Z,47
2022-08-17T10:48:05.278Z,47
2022-08-17T10:49:00.218Z,46
2022-08-17T10:50:03.991Z,46
2022-08-17T10:51:00.293Z,46
2022-08-17T10:52:01.081Z,45
2022-08-17T10:53:00.265Z,45
2022-08-17T10:54:00.402Z,45
2022-08-17T10:55:03.205Z,45
2022-08-17T10:56:01.528Z,45
2022-08-17T10:57:00.312Z,45
2022-08-17T10:58:00.423Z,45
2022-08-17T10:59:00.309Z,46
2022-08-17T11:00:03.751Z,46
2022-08-17T11:01:00.404Z,46
2022-08-17T11:02:00.499Z,46
2022-08-17T11:03:00.365Z,46
2022-08-17T11:04:01.121Z,46
2022-08-17T11:05:03.579Z,46
2022-08-17T11:06:00.447Z,46
2022-08-17T11:07:00.388Z,47
2022-08-17T11:08:01.026Z,47
2022-08-17T11:09:00.399Z,48
2022-08-17T11:10:03.859Z,48
2022-08-17T11:11:00.398Z,48
2022-08-17T11:12:01.042Z,47
2022-08-17T11:13:00.412Z,47
2022-08-17T11:14:00.559Z,47
2022-08-17T11:15:03.353Z,47
2022-08-17T11:16:04.838Z,47
2022-08-17T11:17:00.447Z,47
2022-08-17T11:18:00.536Z,47
2022-08-17T11:19:00.440Z,46
2022-08-17T11:20:03.898Z,46
2022-08-17T11:21:00.481Z,46
2022-08-17T11:22:00.704Z,47
2022-08-17T11:23:00.461Z,47
2022-08-17T11:24:00.610Z,47
2022-08-17T11:25:03.487Z,47
2022-08-17T11:26:00.544Z,47
2022-08-17T11:27:00.516Z,47
2022-08-17T11:28:00.584Z,47
2022-08-17T11:29:00.515Z,47
2022-08-17T11:30:03.915Z,47
2022-08-17T11:31:00.524Z,47
2022-08-17T11:32:01.045Z,47
2022-08-17T11:33:00.551Z,47
2022-08-17T11:34:00.645Z,47
2022-08-17T11:35:03.506Z,47
2022-08-17T11:36:01.113Z,47
2022-08-17T11:37:00.585Z,47
2022-08-17T11:38:00.667Z,47
2022-08-17T11:39:00.599Z,47
2022-08-17T11:40:04.022Z,47
2022-08-17T11:41:00.582Z,47
2022-08-17T11:42:00.681Z,47
2022-08-17T11:43:00.594Z,47
2022-08-17T11:44:02.055Z,47
2022-08-17T11:45:04.294Z,46
2022-08-17T11:46:00.742Z,46
2022-08-17T11:47:00.640Z,46
2022-08-17T11:48:26.413Z,46
2022-08-17T11:49:00.651Z,46
2022-08-17T11:50:03.748Z,46
2022-08-17T11:51:00.716Z,46
2022-08-17T11:52:01.467Z,46
2022-08-17T11:53:00.676Z,46
2022-08-17T11:54:30.626Z,46
2022-08-17T11:55:24.120Z,45
2022-08-17T11:56:01.049Z,45
2022-08-17T11:57:00.755Z,45
2022-08-17T11:58:00.825Z,45
2022-08-17T11:59:00.719Z,45
2022-08-17T12:00:04.384Z,45
2022-08-17T12:01:00.762Z,45
2022-08-17T12:02:00.808Z,44
2022-08-17T12:03:00.787Z,44
2022-08-17T12:04:01.117Z,44
2022-08-17T12:05:03.654Z,43
2022-08-17T12:06:00.846Z,43
2022-08-17T12:07:00.781Z,43
2022-08-17T12:08:01.041Z,43
2022-08-17T12:09:00.825Z,43
2022-08-17T12:10:04.292Z,44
2022-08-17T12:11:00.795Z,44
2022-08-17T12:12:12.946Z,44
2022-08-17T12:13:00.806Z,44
2022-08-17T12:14:00.916Z,44
2022-08-17T12:15:10.627Z,44
2022-08-17T12:16:00.931Z,44
2022-08-17T12:17:00.873Z,44
2022-08-17T12:18:00.949Z,44
2022-08-17T12:19:00.855Z,44
2022-08-17T12:20:04.699Z,44
2022-08-17T12:21:00.889Z,44
2022-08-17T12:22:00.945Z,43
2022-08-17T12:23:00.889Z,43
2022-08-17T12:24:01.006Z,43
2022-08-17T12:25:04.120Z,43
2022-08-17T12:26:01.034Z,43
2022-08-17T12:27:00.918Z,43
2022-08-17T12:28:06.139Z,43
2022-08-17T12:29:01.146Z,43
2022-08-17T12:30:04.522Z,43
2022-08-17T12:31:00.941Z,43
2022-08-17T12:32:01.647Z,43
2022-08-17T12:33:00.961Z,42
2022-08-17T12:34:01.033Z,42
2022-08-17T12:35:04.680Z,42
2022-08-17T12:36:01.076Z,42
2022-08-17T12:37:00.981Z,42
2022-08-17T12:38:01.258Z,42
2022-08-17T12:39:13.772Z,42
2022-08-17T12:40:07.436Z,42
2022-08-17T12:41:01.006Z,42
2022-08-17T12:42:02.648Z,42
2022-08-17T12:43:01.030Z,42
2022-08-17T12:44:01.148Z,42
2022-08-17T12:45:04.121Z,42
2022-08-17T12:46:01.147Z,42
2022-08-17T12:47:01.064Z,41
2022-08-17T12:48:01.208Z,41
2022-08-17T12:49:01.082Z,41
2022-08-17T12:50:06.144Z,41
2022-08-17T12:51:01.099Z,41
2022-08-17T12:52:01.168Z,41
2022-08-17T12:53:02.499Z,41
2022-08-17T12:54:01.184Z,41
2022-08-17T12:55:04.063Z,41
2022-08-17T12:56:01.238Z,41
2022-08-17T12:57:01.137Z,41
2022-08-17T12:58:01.953Z,40
2022-08-17T12:59:01.126Z,40
2022-08-17T13:00:05.815Z,40
2022-08-17T13:01:00.160Z,40
2022-08-17T13:02:00.343Z,40
2022-08-17T13:03:00.185Z,41
2022-08-17T13:04:00.306Z,41
2022-08-17T13:05:04.601Z,41
2022-08-17T13:06:00.301Z,41
2022-08-17T13:07:00.454Z,41
2022-08-17T13:08:00.306Z,42
2022-08-17T13:09:00.225Z,42
2022-08-17T13:10:03.309Z,42
2022-08-17T13:11:00.232Z,42
2022-08-17T13:12:00.340Z,42
2022-08-17T13:13:00.242Z,42
2022-08-17T13:14:01.100Z,42
2022-08-17T13:15:03.209Z,42
2022-08-17T13:16:00.364Z,41
2022-08-17T13:17:00.344Z,41
2022-08-17T13:18:00.361Z,41
2022-08-17T13:19:00.294Z,41
2022-08-17T13:20:03.810Z,41
2022-08-17T13:21:00.314Z,41
2022-08-17T13:22:00.382Z,41
2022-08-17T13:23:00.314Z,41
2022-08-17T13:24:00.423Z,41
2022-08-17T13:25:03.397Z,41
2022-08-17T13:26:00.428Z,41
2022-08-17T13:27:00.354Z,41
2022-08-17T13:28:00.454Z,41
2022-08-17T13:29:00.388Z,41
2022-08-17T13:30:03.771Z,41
2022-08-17T13:31:00.369Z,41
2022-08-17T13:32:04.762Z,41
2022-08-17T13:33:00.402Z,41
2022-08-17T13:34:00.460Z,42
2022-08-17T13:35:15.274Z,42
2022-08-17T13:36:00.502Z,42
2022-08-17T13:37:00.424Z,42
2022-08-17T13:38:00.531Z,42
2022-08-17T13:39:00.462Z,41
2022-08-17T13:40:03.873Z,41
2022-08-17T13:41:00.468Z,41
2022-08-17T13:42:00.566Z,41
2022-08-17T13:43:00.472Z,41
2022-08-17T13:44:00.577Z,41
2022-08-17T13:45:32.384Z,41
2022-08-17T13:46:01.088Z,41
2022-08-17T13:47:00.489Z,41
2022-08-17T13:48:00.615Z,41
2022-08-17T13:49:00.507Z,40
2022-08-17T13:50:04.214Z,40
2022-08-17T13:51:00.548Z,41
2022-08-17T13:52:00.630Z,41
2022-08-17T13:53:00.528Z,41
2022-08-17T13:54:00.658Z,41
2022-08-17T13:55:03.391Z,41
2022-08-17T13:56:00.666Z,41
2022-08-17T13:57:00.562Z,41
2022-08-17T13:58:03.490Z,41
2022-08-17T13:59:00.562Z,41
2022-08-17T14:00:03.805Z,41
2022-08-17T14:01:00.598Z,41
2022-08-17T14:02:00.805Z,41
2022-08-17T14:03:00.612Z,42
2022-08-17T14:04:00.690Z,42
2022-08-17T14:05:06.054Z,42
2022-08-17T14:06:00.705Z,42
2022-08-17T14:07:00.626Z,42
2022-08-17T14:08:00.782Z,42
2022-08-17T14:09:00.666Z,43
2022-08-17T14:10:04.333Z,43
2022-08-17T14:11:00.660Z,43
2022-08-17T14:12:00.758Z,43
2022-08-17T14:13:00.698Z,43
2022-08-17T14:14:01.176Z,42
2022-08-17T14:15:03.619Z,42
2022-08-17T14:16:02.229Z,42